Time;durP1;ratioP1;P1;durP2;ratioP2;P2;SDS_P1;SDS_P2;PMS_P1;PMS_P2;Temp;Humidity;BMP_temperature;BMP_pressure;BME280_temperature;BME280_humidity;BME280_pressure;Samples;Min_cycle;Max_cycle;Signal;HPM_P1;HPM_P2
2022/07/27 00:01:29;;;;;;;9.50;7.10;;;;;;;20.00;62.82;98807.65;238730;1192;139210;-57
2022/07/27 00:06:32;;;;;;;10.90;7.50;;;;;;;19.94;62.79;98808.63;238853;1190;139961;-59
2022/07/27 00:11:35;;;;;;;12.20;7.60;;;;;;;19.86;62.72;98813.61;238904;1191;139754;-59
2022/07/27 00:16:38;;;;;;;11.70;6.90;;;;;;;19.77;62.81;98811.33;238516;1192;139382;-58
2022/07/27 00:21:41;;;;;;;11.20;7.00;;;;;;;19.71;62.96;98810.27;238642;1192;140151;-58
2022/07/27 00:26:48;;;;;;;12.70;7.00;;;;;;;19.70;63.08;98807.67;238710;1191;139113;-59
2022/07/27 00:31:51;;;;;;;8.90;7.60;;;;;;;19.71;63.06;98810.17;238573;1192;139512;-58
2022/07/27 00:36:54;;;;;;;9.50;6.70;;;;;;;19.65;63.05;98813.84;238672;1191;138956;-58
2022/07/27 00:41:57;;;;;;;9.30;6.70;;;;;;;19.60;62.97;98814.06;238922;1192;139557;-58
2022/07/27 00:47:00;;;;;;;8.70;6.30;;;;;;;19.56;62.98;98813.81;238578;1192;138989;-58
2022/07/27 00:52:03;;;;;;;9.00;6.10;;;;;;;19.54;62.91;98811.68;238608;1192;139468;-57
2022/07/27 00:57:09;;;;;;;8.70;6.20;;;;;;;19.51;62.93;98818.03;238665;1191;139980;-55
2022/07/27 01:02:11;;;;;;;10.70;6.40;;;;;;;19.50;63.11;98813.90;238547;1192;139701;-57
2022/07/27 01:07:25;;;;;;;10.00;6.60;;;;;;;19.45;63.05;98814.39;238463;1192;138996;-58
2022/07/27 01:12:31;;;;;;;9.20;7.10;;;;;;;19.41;63.07;98817.48;238698;1190;139024;-56
2022/07/27 01:17:34;;;;;;;10.70;6.80;;;;;;;19.40;63.13;98816.37;238766;1191;139499;-61
2022/07/27 01:22:37;;;;;;;10.90;6.60;;;;;;;19.33;62.99;98829.06;238592;1191;140591;-57
2022/07/27 01:27:40;;;;;;;9.80;7.20;;;;;;;19.32;63.14;98830.41;238494;1192;139563;-58
2022/07/27 01:32:43;;;;;;;10.20;7.30;;;;;;;19.35;63.31;98827.96;238559;1192;139034;-58
2022/07/27 01:37:45;;;;;;;9.30;7.20;;;;;;;19.32;63.15;98824.50;238374;1192;139780;-58
2022/07/27 01:42:50;;;;;;;12.90;7.10;;;;;;;19.25;63.08;98825.85;238305;1192;138965;-59
2022/07/27 01:47:53;;;;;;;8.80;6.90;;;;;;;19.14;63.05;98821.64;238411;1192;139507;-59
2022/07/27 01:52:56;;;;;;;9.80;6.80;;;;;;;19.08;63.05;98817.92;238561;1192;140044;-57
2022/07/27 01:58:02;;;;;;;8.20;6.80;;;;;;;19.05;63.24;98819.48;238650;1191;139083;-57
2022/07/27 02:03:07;;;;;;;12.80;7.40;;;;;;;19.04;63.12;98820.38;238791;1191;139013;-58
2022/07/27 02:08:10;;;;;;;9.50;7.60;;;;;;;18.99;63.19;98817.27;238629;1192;140299;-59
2022/07/27 02:13:13;;;;;;;13.80;7.40;;;;;;;18.94;63.15;98816.56;238774;1191;138914;-59
2022/07/27 02:18:25;;;;;;;7.90;6.90;;;;;;;18.87;63.16;98817.52;238476;1192;139242;-59
2022/07/27 02:23:39;;;;;;;10.60;7.20;;;;;;;18.82;63.31;98812.51;238776;1191;139286;-58
2022/07/27 02:28:42;;;;;;;11.50;7.60;;;;;;;18.81;63.39;98810.81;238739;1191;139691;-58
2022/07/27 02:33:45;;;;;;;14.10;7.80;;;;;;;18.85;63.57;98815.78;238642;1192;139855;-58
2022/07/27 02:38:48;;;;;;;9.00;7.70;;;;;;;18.84;63.52;98826.07;238758;1191;139087;-58
2022/07/27 02:43:51;;;;;;;11.30;7.70;;;;;;;18.80;63.51;98826.48;238585;1191;139233;-58
2022/07/27 02:48:54;;;;;;;13.70;8.70;;;;;;;18.74;63.56;98830.02;238408;1192;140006;-58
2022/07/27 02:53:56;;;;;;;10.50;7.70;;;;;;;18.71;63.63;98838.37;238479;1192;139611;-58
2022/07/27 02:59:00;;;;;;;11.10;7.80;;;;;;;18.70;63.62;98838.30;238445;1192;140094;-59
2022/07/27 03:04:03;;;;;;;12.10;8.20;;;;;;;18.69;63.72;98840.51;238326;1192;211152;-59
2022/07/27 03:09:07;;;;;;;13.40;8.20;;;;;;;18.74;63.99;98843.52;238469;1192;139647;-58
2022/07/27 03:14:10;;;;;;;13.50;9.20;;;;;;;18.76;63.93;98854.78;238235;1191;139500;-58
2022/07/27 03:19:13;;;;;;;11.70;9.30;;;;;;;18.71;63.81;98859.02;238781;1191;140054;-58
2022/07/27 03:24:16;;;;;;;12.20;8.80;;;;;;;18.67;63.80;98869.27;238480;1192;139532;-57
2022/07/27 03:29:20;;;;;;;10.70;7.80;;;;;;;18.66;63.82;98873.51;238864;1191;140823;-58
2022/07/27 03:34:22;;;;;;;11.80;9.00;;;;;;;18.66;63.78;98875.15;238619;1191;140112;-59
2022/07/27 03:39:25;;;;;;;13.60;8.60;;;;;;;18.68;63.92;98878.18;238832;1191;139703;-59
2022/07/27 03:44:28;;;;;;;11.90;8.30;;;;;;;18.71;63.96;98869.63;238762;1191;139691;-58
2022/07/27 03:49:31;;;;;;;14.40;8.60;;;;;;;18.73;63.93;98870.73;238718;1192;139569;-58
2022/07/27 03:54:34;;;;;;;9.80;7.90;;;;;;;18.73;63.83;98873.95;238747;1192;139430;-58
2022/07/27 03:59:37;;;;;;;11.80;7.90;;;;;;;18.77;63.84;98870.88;238538;1192;140114;-57
2022/07/27 04:04:40;;;;;;;11.10;8.60;;;;;;;18.79;63.86;98875.91;238453;1192;139871;-57
2022/07/27 04:09:43;;;;;;;12.10;8.00;;;;;;;18.80;63.80;98877.16;238419;1191;140365;-57
2022/07/27 04:14:48;;;;;;;12.70;7.70;;;;;;;18.75;63.76;98881.99;238771;1191;138732;-60
2022/07/27 04:19:51;;;;;;;11.80;7.70;;;;;;;18.69;63.63;98890.86;238738;1191;138776;-61
2022/07/27 04:24:54;;;;;;;10.50;7.10;;;;;;;18.62;63.61;98896.91;238720;1192;139928;-61
2022/07/27 04:29:57;;;;;;;9.40;7.20;;;;;;;18.66;63.76;98892.80;238771;1192;139398;-58
2022/07/27 04:35:00;;;;;;;8.10;6.80;;;;;;;18.70;63.72;98886.60;238837;1191;140423;-57
2022/07/27 04:40:04;;;;;;;10.90;7.60;;;;;;;18.77;63.84;98888.14;238494;1192;139598;-57
2022/07/27 04:45:07;;;;;;;10.90;7.90;;;;;;;18.84;63.86;98893.21;238716;1192;138952;-57
2022/07/27 04:50:12;;;;;;;12.50;7.50;;;;;;;18.88;63.59;98894.23;238751;1191;139362;-58
2022/07/27 04:55:15;;;;;;;10.60;7.90;;;;;;;18.91;63.74;98896.06;238774;1191;139605;-59
2022/07/27 05:00:18;;;;;;;9.50;6.60;;;;;;;18.93;63.55;98898.99;238686;1192;139467;-59
2022/07/27 05:05:21;;;;;;;9.40;6.70;;;;;;;18.94;63.48;98897.98;238698;1191;139931;-59
2022/07/27 05:10:24;;;;;;;11.60;6.70;;;;;;;19.00;63.56;98903.48;238730;1191;139659;-59
2022/07/27 05:15:27;;;;;;;10.40;6.80;;;;;;;19.05;63.50;98904.52;238721;1192;139308;-59
2022/07/27 05:20:50;;;;;;;10.00;6.90;;;;;;;19.10;63.42;98913.10;238676;1192;139706;-60
2022/07/27 05:25:53;;;;;;;9.30;6.20;;;;;;;19.11;63.50;98909.91;238672;1190;140191;-59
2022/07/27 05:30:56;;;;;;;10.20;6.10;;;;;;;19.16;63.48;98913.59;238746;1192;139248;-60
2022/07/27 05:35:59;;;;;;;14.40;6.80;;;;;;;19.25;63.47;98913.71;238713;1191;141361;-59
2022/07/27 05:41:06;;;;;;;12.70;7.10;;;;;;;19.34;63.39;98920.42;238593;1192;140029;-58
2022/07/27 05:46:09;;;;;;;12.10;7.60;;;;;;;19.47;63.43;98925.57;238134;1192;138937;-59
2022/07/27 05:51:12;;;;;;;12.70;7.40;;;;;;;19.60;63.32;98927.55;238595;1191;139493;-59
2022/07/27 05:56:15;;;;;;;12.20;7.90;;;;;;;19.69;63.22;98933.09;238792;1191;140670;-60
2022/07/27 06:01:18;;;;;;;12.30;7.50;;;;;;;19.72;63.04;98931.21;238505;1191;139107;-59
2022/07/27 06:11:43;;;;;;;16.50;7.80;;;;;;;19.80;63.16;98938.45;238251;1192;139978;-60
2022/07/27 06:16:46;;;;;;;9.70;7.60;;;;;;;19.90;63.08;98945.71;238169;1192;140099;-60
2022/07/27 06:21:49;;;;;;;14.30;9.00;;;;;;;20.00;63.12;98941.44;238304;1192;139353;-59
2022/07/27 06:26:56;;;;;;;13.60;8.30;;;;;;;20.14;63.02;98942.77;238684;1192;139158;-61
2022/07/27 06:31:59;;;;;;;15.40;7.60;;;;;;;20.24;62.94;98944.16;238680;1191;139495;-59
2022/07/27 06:37:03;;;;;;;15.60;8.50;;;;;;;20.31;62.83;98943.30;238553;1192;140086;-59
2022/07/27 06:42:05;;;;;;;18.40;8.90;;;;;;;20.38;62.82;98946.88;238028;1192;139274;-60
2022/07/27 06:47:08;;;;;;;14.50;10.00;;;;;;;20.48;62.81;98947.23;238215;1192;140490;-59
2022/07/27 06:52:11;;;;;;;17.90;9.00;;;;;;;20.51;62.56;98940.06;238444;1191;139516;-60
2022/07/27 06:57:15;;;;;;;16.10;9.30;;;;;;;20.55;62.74;98941.71;238681;1191;139594;-60
2022/07/27 07:02:18;;;;;;;13.00;9.10;;;;;;;20.63;62.65;98946.27;238654;1190;139200;-60
2022/07/27 07:07:22;;;;;;;14.50;9.40;;;;;;;20.69;62.53;98943.50;238693;1191;139466;-60
2022/07/27 07:12:27;;;;;;;14.30;8.50;;;;;;;20.70;62.32;98957.80;238506;1192;139602;-60
2022/07/27 07:17:30;;;;;;;13.80;9.70;;;;;;;20.71;62.24;98965.48;238882;1192;138644;-60
2022/07/27 07:22:33;;;;;;;16.10;8.20;;;;;;;20.78;62.26;98972.62;238777;1190;139853;-60
2022/07/27 07:27:36;;;;;;;15.20;9.80;;;;;;;20.90;62.25;98975.69;238763;1191;142541;-60
2022/07/27 07:32:39;;;;;;;13.20;10.30;;;;;;;20.97;62.27;98963.70;238207;1192;138849;-61
2022/07/27 07:37:42;;;;;;;15.10;10.10;;;;;;;21.04;62.20;98957.73;238195;1192;139921;-61
2022/07/27 07:42:57;;;;;;;15.80;9.70;;;;;;;21.11;62.06;98958.67;238493;1192;141428;-61
2022/07/27 07:48:00;;;;;;;13.80;9.90;;;;;;;21.19;62.11;98965.05;238735;1192;140047;-64
2022/07/27 07:53:03;;;;;;;15.80;9.40;;;;;;;21.30;62.10;98975.36;238900;1190;140227;-61
2022/07/27 07:58:06;;;;;;;9.20;6.80;;;;;;;21.46;61.92;98980.59;238526;1191;139508;-59
2022/07/27 08:03:09;;;;;;;11.90;7.70;;;;;;;21.60;61.74;98988.27;238679;1190;139862;-60
2022/07/27 08:08:12;;;;;;;12.70;7.20;;;;;;;21.73;61.42;98994.58;238756;1190;139094;-60
2022/07/27 08:13:15;;;;;;;14.10;9.00;;;;;;;21.81;61.21;98996.28;238763;1191;139491;-60
2022/07/27 08:18:23;;;;;;;13.30;8.30;;;;;;;21.81;60.91;98994.30;238888;1190;138937;-58
2022/07/27 08:23:27;;;;;;;12.00;8.50;;;;;;;21.84;60.88;98990.84;238948;1191;140285;-61
2022/07/27 08:28:30;;;;;;;20.20;8.30;;;;;;;21.90;60.81;98986.23;238730;1191;139432;-61
2022/07/27 08:33:38;;;;;;;13.60;8.50;;;;;;;21.93;60.65;98986.70;238641;1191;139508;-59
2022/07/27 08:38:42;;;;;;;11.70;8.30;;;;;;;22.03;60.64;98989.61;238811;1190;139529;-61
2022/07/27 08:43:47;;;;;;;12.10;9.10;;;;;;;22.14;60.34;98984.27;238752;1190;139313;-59
2022/07/27 08:48:51;;;;;;;13.80;8.70;;;;;;;22.24;60.36;98981.23;238595;1190;139785;-60
2022/07/27 08:53:55;;;;;;;11.20;8.80;;;;;;;22.37;60.08;98972.64;238604;1191;210038;-59
2022/07/27 08:58:58;;;;;;;13.80;8.30;;;;;;;22.55;60.00;98975.36;238864;1190;139327;-59
2022/07/27 09:04:01;;;;;;;13.40;8.50;;;;;;;22.74;59.75;98968.65;238733;1190;139749;-62
2022/07/27 09:09:03;;;;;;;13.70;7.90;;;;;;;22.95;59.66;98973.79;238604;1191;139269;-61
2022/07/27 09:14:11;;;;;;;13.20;8.70;;;;;;;23.15;59.41;98977.77;238509;1192;139732;-61
2022/07/27 09:19:15;;;;;;;12.50;8.80;;;;;;;23.24;58.86;98974.58;238597;1192;139324;-61
2022/07/27 09:24:20;;;;;;;12.10;7.50;;;;;;;23.30;58.47;98977.83;238730;1190;139380;-59
2022/07/27 09:29:43;;;;;;;10.70;7.40;;;;;;;23.42;58.46;98971.34;238914;1190;139593;-60
2022/07/27 09:34:46;;;;;;;9.50;6.80;;;;;;;23.55;58.04;98962.64;238747;1192;139293;-61
2022/07/27 09:39:49;;;;;;;12.10;8.20;;;;;;;23.66;57.82;98956.80;238766;1190;139263;-61
2022/07/27 09:44:53;;;;;;;13.40;7.70;;;;;;;23.73;57.56;98961.94;238550;1192;139279;-61
2022/07/27 09:50:19;;;;;;;10.40;7.70;;;;;;;23.85;57.38;98956.55;238543;1192;139945;-61
2022/07/27 09:55:22;;;;;;;13.00;7.40;;;;;;;24.07;57.11;98946.00;238346;1192;139319;-61
2022/07/27 10:00:26;;;;;;;11.90;8.00;;;;;;;24.28;56.97;98941.43;238275;1192;139363;-60
2022/07/27 10:05:29;;;;;;;9.10;6.90;;;;;;;24.44;56.59;98940.73;238074;1192;140290;-60
2022/07/27 10:10:32;;;;;;;11.80;6.10;;;;;;;24.52;56.43;98943.50;238821;1190;139289;-60
2022/07/27 10:15:39;;;;;;;12.00;6.10;;;;;;;24.43;55.91;98938.58;238770;1190;139471;-59
2022/07/27 10:20:44;;;;;;;9.40;6.50;;;;;;;24.45;56.11;98935.61;238607;1191;140132;-60
2022/07/27 10:26:20;;;;;;;10.00;6.30;;;;;;;24.75;56.07;98940.13;238699;1190;139611;-60
2022/07/27 10:31:29;;;;;;;12.30;5.40;;;;;;;25.05;55.65;98944.93;238743;1191;139304;-59
2022/07/27 10:36:32;;;;;;;11.10;6.40;;;;;;;25.38;55.37;98939.90;238433;1192;139755;-58
2022/07/27 10:41:40;;;;;;;13.40;6.80;;;;;;;25.73;55.17;98939.02;238523;1192;140469;-61
2022/07/27 10:47:02;;;;;;;12.40;5.80;;;;;;;25.88;54.24;98935.90;238461;1192;140053;-60
2022/07/27 10:52:05;;;;;;;10.40;5.80;;;;;;;25.84;53.48;98937.55;238795;1190;138991;-60
2022/07/27 10:57:08;;;;;;;12.40;6.20;;;;;;;25.73;53.10;98943.70;238684;1190;139370;-60
2022/07/27 11:02:13;;;;;;;7.70;5.60;;;;;;;25.63;52.75;98941.81;238582;1190;139302;-60
2022/07/27 11:07:20;;;;;;;;;;;;;;;25.62;52.81;98943.73;238591;1192;139038;-59
2022/07/27 11:12:29;;;;;;;7.80;4.90;;;;;;;25.70;52.66;98936.20;238757;1190;125445;-60
2022/07/27 11:17:32;;;;;;;10.10;4.30;;;;;;;25.78;52.31;98929.44;238745;1190;138615;-60
2022/07/27 11:22:58;;;;;;;6.70;4.50;;;;;;;25.87;51.91;98924.48;238790;1190;139870;-60
2022/07/27 11:28:26;;;;;;;;;;;;;;;26.10;51.72;98917.50;238661;1190;139870;-59
2022/07/27 11:33:31;;;;;;;11.00;5.50;;;;;;;26.36;51.55;98916.51;238581;1192;126112;-58
2022/07/27 11:38:45;;;;;;;8.80;5.10;;;;;;;26.42;51.09;98906.93;238646;1190;139832;-60
2022/07/27 11:43:48;;;;;;;7.20;4.50;;;;;;;26.43;50.60;98902.46;238564;1190;139338;-59
2022/07/27 11:48:55;;;;;;;8.80;4.90;;;;;;;26.55;50.71;98896.96;238640;1191;138965;-60
2022/07/27 11:54:24;;;;;;;9.00;5.10;;;;;;;26.67;50.12;98893.77;238683;1190;138809;-60
2022/07/27 11:59:31;;;;;;;10.70;6.10;;;;;;;26.78;49.63;98894.83;238795;1190;139532;-60
2022/07/27 12:04:37;;;;;;;9.60;3.70;;;;;;;26.85;49.41;98891.35;238482;1192;140103;-60
2022/07/27 12:09:51;;;;;;;5.20;4.20;;;;;;;26.85;49.01;98891.52;238480;1192;139054;-60
2022/07/27 12:14:56;;;;;;;7.70;4.80;;;;;;;26.79;48.80;98884.65;238564;1191;139559;-60
2022/07/27 12:20:13;;;;;;;5.20;3.60;;;;;;;26.69;48.40;98887.58;238692;1190;151099;-60
2022/07/27 12:25:16;;;;;;;6.80;3.60;;;;;;;26.64;48.26;98880.27;238444;1192;138594;-60
2022/07/27 12:30:28;;;;;;;7.10;3.80;;;;;;;26.68;48.38;98877.38;238397;1192;138841;-60
2022/07/27 12:35:45;;;;;;;8.30;3.80;;;;;;;26.75;48.17;98879.76;238473;1191;138715;-60
2022/07/27 12:40:54;;;;;;;10.50;3.80;;;;;;;26.77;47.60;98880.06;238728;1190;139278;-61
2022/07/27 12:46:12;;;;;;;6.30;4.00;;;;;;;26.72;47.48;98881.81;238656;1190;139873;-61
2022/07/27 12:51:22;;;;;;;5.90;3.90;;;;;;;26.71;47.38;98876.14;238693;1190;139330;-60
2022/07/27 12:56:25;;;;;;;9.10;3.90;;;;;;;26.71;47.56;98869.90;238662;1190;139288;-60
2022/07/27 13:01:29;;;;;;;5.90;3.70;;;;;;;26.79;47.48;98869.48;238757;1190;139391;-61
2022/07/27 13:06:32;;;;;;;6.50;3.70;;;;;;;26.85;47.21;98875.52;238621;1190;138892;-59
2022/07/27 13:11:35;;;;;;;5.80;3.50;;;;;;;26.94;47.19;98875.42;238717;1190;139143;-59
2022/07/27 13:16:38;;;;;;;7.00;3.10;;;;;;;27.11;46.96;98877.81;238579;1191;139013;-59
2022/07/27 13:21:41;;;;;;;5.10;3.10;;;;;;;27.25;46.45;98874.72;238579;1191;140504;-61
2022/07/27 13:26:44;;;;;;;6.10;2.90;;;;;;;27.40;46.38;98874.52;238647;1190;138978;-61
2022/07/27 13:31:47;;;;;;;7.10;3.40;;;;;;;27.58;45.99;98866.45;238808;1190;139129;-61
2022/07/27 13:36:56;;;;;;;8.50;3.10;;;;;;;27.74;45.74;98870.70;238674;1190;139421;-61
2022/07/27 13:41:59;;;;;;;4.50;2.80;;;;;;;27.86;45.43;98867.95;238500;1190;139792;-61
2022/07/27 13:47:02;;;;;;;5.70;3.00;;;;;;;27.91;44.80;98868.71;238615;1190;138646;-61
2022/07/27 13:52:07;;;;;;;4.70;3.20;;;;;;;27.88;44.20;98865.48;238702;1190;139453;-59
2022/07/27 13:57:10;;;;;;;4.50;3.20;;;;;;;27.84;43.82;98864.54;238674;1190;139407;-61
2022/07/27 14:02:13;;;;;;;7.00;3.20;;;;;;;27.76;43.61;98862.30;238811;1190;138494;-61
2022/07/27 14:07:18;;;;;;;6.30;3.20;;;;;;;27.73;43.88;98856.19;238689;1190;138887;-61
2022/07/27 14:12:27;;;;;;;6.70;3.50;;;;;;;27.77;43.82;98858.85;238732;1190;139154;-61
2022/07/27 14:17:31;;;;;;;7.20;3.50;;;;;;;27.89;43.47;98857.48;238731;1190;139373;-61
2022/07/27 14:22:34;;;;;;;6.20;3.60;;;;;;;27.97;43.16;98853.09;238650;1191;138757;-61
2022/07/27 14:27:37;;;;;;;5.40;3.50;;;;;;;27.92;42.77;98847.33;238743;1190;139259;-60
2022/07/27 14:32:40;;;;;;;5.80;3.70;;;;;;;27.85;42.71;98846.57;238776;1191;139296;-61
2022/07/27 14:37:43;;;;;;;9.00;3.80;;;;;;;27.78;42.86;98848.05;238672;1190;139535;-59
2022/07/27 14:42:46;;;;;;;6.20;4.20;;;;;;;27.71;42.57;98848.66;238537;1191;138728;-61
2022/07/27 14:47:49;;;;;;;8.60;4.00;;;;;;;27.61;42.67;98849.37;238617;1191;138799;-59
2022/07/27 14:52:52;;;;;;;5.30;3.80;;;;;;;27.54;42.60;98851.27;238461;1192;139583;-60
2022/07/27 14:57:54;;;;;;;5.00;3.90;;;;;;;27.43;42.57;98849.64;238735;1190;138854;-61
2022/07/27 15:02:57;;;;;;;6.60;4.20;;;;;;;27.25;42.78;98847.55;237953;1190;138855;-61
2022/07/27 15:08:02;;;;;;;12.60;4.80;;;;;;;27.14;42.69;98851.10;238401;1190;138929;-62
2022/07/27 15:13:06;;;;;;;10.10;4.20;;;;;;;27.07;43.00;98843.08;238645;1191;139143;-61
2022/07/27 15:18:09;;;;;;;5.90;3.80;;;;;;;27.03;43.20;98838.98;238707;1190;138965;-61
2022/07/27 15:23:13;;;;;;;8.20;4.00;;;;;;;27.00;43.14;98831.62;238771;1192;138815;-58
2022/07/27 15:28:16;;;;;;;4.60;3.00;;;;;;;26.96;42.98;98828.65;238518;1190;138970;-61
2022/07/27 15:33:19;;;;;;;6.40;3.60;;;;;;;26.93;42.59;98827.06;238279;1191;138925;-58
2022/07/27 15:38:22;;;;;;;5.30;3.60;;;;;;;26.96;42.74;98824.92;238348;1192;138922;-58
2022/07/27 15:43:25;;;;;;;7.70;3.60;;;;;;;26.92;42.63;98824.13;238250;1192;139859;-59
2022/07/27 15:48:28;;;;;;;5.50;3.70;;;;;;;26.86;42.90;98815.66;238339;1192;139092;-59
2022/07/27 15:53:31;;;;;;;5.00;3.50;;;;;;;26.75;43.09;98815.86;238661;1191;139420;-60
2022/07/27 15:58:34;;;;;;;8.80;3.70;;;;;;;26.69;42.95;98817.77;238436;1192;139437;-60
2022/07/27 16:03:38;;;;;;;4.60;3.70;;;;;;;26.68;42.81;98819.50;238594;1190;138967;-60
2022/07/27 16:08:42;;;;;;;9.40;4.00;;;;;;;26.67;42.82;98816.77;238642;1190;138949;-60
2022/07/27 16:13:47;;;;;;;5.90;3.60;;;;;;;26.69;42.90;98812.31;238600;1190;139336;-61
2022/07/27 16:18:51;;;;;;;7.10;3.30;;;;;;;26.63;42.43;98812.21;238712;1190;139796;-60
2022/07/27 16:23:55;;;;;;;7.30;3.20;;;;;;;26.55;42.62;98811.95;238662;1191;139948;-60
2022/07/27 16:28:59;;;;;;;6.90;3.40;;;;;;;26.59;42.63;98809.96;238851;1190;139289;-60
2022/07/27 16:34:03;;;;;;;5.80;3.20;;;;;;;26.64;42.64;98803.98;238580;1191;138222;-58
2022/07/27 16:39:11;;;;;;;5.30;3.00;;;;;;;26.66;42.60;98803.77;238541;1190;140106;-58
2022/07/27 16:44:17;;;;;;;8.50;2.90;;;;;;;26.62;42.70;98801.11;238789;1191;139177;-59
2022/07/27 16:49:20;;;;;;;4.70;2.70;;;;;;;26.51;42.68;98797.21;238691;1191;138855;-59
2022/07/27 16:54:35;;;;;;;6.10;2.70;;;;;;;26.36;42.81;98800.89;238572;1191;138639;-58
2022/07/27 16:59:41;;;;;;;5.50;2.70;;;;;;;26.24;43.14;98802.55;238825;1191;139126;-60
2022/07/27 17:04:44;;;;;;;8.60;6.30;;;;;;;26.10;43.14;98808.85;238482;1192;139483;-60
2022/07/27 17:09:47;;;;;;;6.80;3.50;;;;;;;26.05;42.92;98809.39;238660;1192;138809;-59
2022/07/27 17:14:50;;;;;;;6.80;3.20;;;;;;;26.06;42.82;98808.41;238436;1192;139099;-60
2022/07/27 17:19:53;;;;;;;5.70;2.70;;;;;;;26.02;42.97;98814.47;238718;1192;138571;-60
2022/07/27 17:24:56;;;;;;;3.00;2.70;;;;;;;25.99;42.87;98812.27;238645;1191;139671;-60
2022/07/27 17:30:00;;;;;;;5.80;3.00;;;;;;;25.88;43.10;98816.48;238628;1192;138748;-61
2022/07/27 17:35:04;;;;;;;9.70;3.30;;;;;;;25.79;43.06;98820.27;238493;1191;139201;-60
2022/07/27 17:40:07;;;;;;;9.60;3.60;;;;;;;25.75;43.29;98821.05;238480;1192;139150;-60
2022/07/27 17:45:10;;;;;;;13.10;3.20;;;;;;;25.70;43.37;98821.89;238765;1190;139005;-60
2022/07/27 17:50:13;;;;;;;10.40;3.70;;;;;;;25.64;43.34;98823.59;238790;1190;139665;-60
2022/07/27 17:55:16;;;;;;;7.20;2.50;;;;;;;25.56;43.83;98830.45;238702;1192;139635;-60
2022/07/27 18:00:19;;;;;;;4.50;1.90;;;;;;;25.47;43.72;98843.45;238509;1192;139526;-60
2022/07/27 18:05:22;;;;;;;6.80;1.70;;;;;;;25.33;43.87;98854.02;238602;1192;138737;-60
2022/07/27 18:10:25;;;;;;;10.90;2.40;;;;;;;25.21;44.02;98857.27;238572;1191;138772;-60
2022/07/27 18:15:49;;;;;;;7.20;3.10;;;;;;;25.08;44.13;98852.46;238551;1192;139401;-57
2022/07/27 18:20:55;;;;;;;6.80;2.40;;;;;;;24.98;44.85;98859.55;238399;1190;138875;-57
2022/07/27 18:25:58;;;;;;;4.40;1.90;;;;;;;24.90;45.22;98869.26;237870;1193;138779;-57
2022/07/27 18:31:02;;;;;;;7.10;1.50;;;;;;;24.84;45.26;98877.88;237802;1191;139769;-56
2022/07/27 18:36:06;;;;;;;4.10;1.60;;;;;;;24.78;45.16;98887.29;238506;1191;139111;-58
2022/07/27 18:41:11;;;;;;;6.40;1.70;;;;;;;24.72;45.01;98890.77;238798;1191;139364;-58
2022/07/27 18:46:16;;;;;;;6.20;1.80;;;;;;;24.61;45.15;98903.35;238277;1190;139397;-58
2022/07/27 18:51:19;;;;;;;8.40;1.80;;;;;;;24.49;44.95;98916.00;238012;1191;139659;-58
2022/07/27 18:56:22;;;;;;;4.90;1.50;;;;;;;24.39;45.22;98928.70;238587;1191;142063;-58
2022/07/27 19:01:25;;;;;;;5.30;1.50;;;;;;;24.26;45.28;98928.40;238790;1190;138572;-57
2022/07/27 19:06:28;;;;;;;4.90;1.60;;;;;;;24.17;45.58;98928.33;238693;1190;139016;-57
2022/07/27 19:11:31;;;;;;;5.50;1.70;;;;;;;24.03;45.75;98923.73;238903;1190;139826;-59
2022/07/27 19:16:34;;;;;;;5.70;1.80;;;;;;;23.88;46.02;98926.69;238759;1190;140456;-58
2022/07/27 19:21:37;;;;;;;12.10;1.60;;;;;;;23.73;46.17;98929.52;238833;1190;139264;-57
2022/07/27 19:26:41;;;;;;;4.00;1.60;;;;;;;23.58;46.42;98936.37;238689;1190;141029;-58
2022/07/27 19:31:44;;;;;;;4.50;1.60;;;;;;;23.46;46.65;98934.89;238601;1192;139111;-57
2022/07/27 19:36:47;;;;;;;3.90;1.90;;;;;;;23.36;47.32;98939.77;238465;1192;139655;-59
2022/07/27 19:41:52;;;;;;;3.60;1.60;;;;;;;23.34;47.36;98947.66;238466;1192;139074;-59
2022/07/27 19:46:56;;;;;;;4.60;1.80;;;;;;;23.24;47.37;98955.70;238767;1191;139234;-57
2022/07/27 19:52:01;;;;;;;5.40;1.60;;;;;;;23.17;47.49;98955.46;238756;1192;139692;-57
2022/07/27 19:57:04;;;;;;;;;;;;;;;23.08;47.62;98959.02;238728;1190;139423;-59
2022/07/27 20:02:09;;;;;;;6.00;2.30;;;;;;;22.98;47.77;98961.67;238783;1192;125625;-58
2022/07/27 20:07:12;;;;;;;4.50;2.30;;;;;;;22.90;47.95;98966.52;238721;1191;139208;-58
2022/07/27 20:12:15;;;;;;;3.40;1.50;;;;;;;22.84;48.12;98975.67;238545;1192;139320;-59
2022/07/27 20:17:18;;;;;;;2.70;1.50;;;;;;;22.78;48.22;98984.17;238738;1192;139016;-58
2022/07/27 20:22:21;;;;;;;4.90;2.00;;;;;;;22.74;48.26;98987.95;238767;1192;138966;-58
2022/07/27 20:27:24;;;;;;;5.70;1.80;;;;;;;22.66;48.42;98991.26;238753;1190;138958;-57
2022/07/27 20:32:27;;;;;;;4.00;1.60;;;;;;;22.65;48.51;98990.64;238728;1190;139596;-59
2022/07/27 20:37:31;;;;;;;3.70;1.80;;;;;;;22.61;48.63;98994.02;238839;1190;139023;-58
2022/07/27 20:42:34;;;;;;;4.40;1.70;;;;;;;22.59;48.61;98999.16;238845;1190;139187;-57
2022/07/27 20:47:42;;;;;;;10.30;1.80;;;;;;;22.56;48.85;99005.63;238904;1190;139862;-58
2022/07/27 20:52:45;;;;;;;4.10;1.70;;;;;;;22.51;49.04;99015.47;238607;1192;139459;-57
2022/07/27 20:57:47;;;;;;;4.00;1.70;;;;;;;22.46;49.13;99018.16;238612;1192;139346;-58
2022/07/27 21:02:51;;;;;;;4.90;1.80;;;;;;;22.44;49.20;99022.35;238572;1191;139449;-60
2022/07/27 21:07:54;;;;;;;8.40;2.00;;;;;;;22.44;49.39;99026.70;238485;1192;138884;-59
2022/07/27 21:12:57;;;;;;;7.60;2.30;;;;;;;22.45;49.51;99036.48;238754;1190;139020;-58
2022/07/27 21:18:01;;;;;;;8.80;2.40;;;;;;;22.44;49.53;99033.34;238871;1191;139010;-59
2022/07/27 21:28:39;;;;;;;4.90;2.10;;;;;;;22.39;50.00;99035.55;238459;1192;140128;-59
2022/07/27 21:33:43;;;;;;;4.70;2.30;;;;;;;22.36;50.21;99039.19;238721;1192;139958;-59
2022/07/27 21:38:46;;;;;;;4.30;2.00;;;;;;;22.32;50.37;99038.48;238347;1192;138972;-59
2022/07/27 21:43:49;;;;;;;3.30;1.80;;;;;;;22.31;50.54;99044.43;238467;1191;138869;-60
2022/07/27 21:48:52;;;;;;;3.50;1.90;;;;;;;22.30;50.60;99044.88;238366;1192;138649;-60
2022/07/27 21:53:55;;;;;;;5.30;1.80;;;;;;;22.29;50.60;99047.02;238655;1192;140316;-58
2022/07/27 21:58:58;;;;;;;7.50;1.80;;;;;;;22.30;50.77;99054.27;238675;1192;138733;-58
2022/07/27 22:04:01;;;;;;;3.70;1.80;;;;;;;22.28;50.83;99066.78;238570;1192;139147;-59
2022/07/27 22:09:04;;;;;;;5.70;2.00;;;;;;;22.26;50.92;99070.88;238839;1190;138638;-58
2022/07/27 22:14:07;;;;;;;6.10;2.00;;;;;;;22.24;51.11;99070.36;238659;1190;139271;-58
2022/07/27 22:19:10;;;;;;;5.80;2.10;;;;;;;22.22;51.16;99080.53;238673;1190;138739;-57
2022/07/27 22:24:13;;;;;;;4.30;2.00;;;;;;;22.20;51.20;99088.30;238597;1192;139799;-59
2022/07/27 22:29:17;;;;;;;4.30;1.90;;;;;;;22.19;51.41;99091.67;238628;1192;138948;-60
2022/07/27 22:34:20;;;;;;;3.00;1.60;;;;;;;22.17;51.40;99096.80;238507;1192;139330;-58
2022/07/27 22:39:23;;;;;;;5.00;1.80;;;;;;;22.14;51.36;99097.64;238679;1192;139631;-59
2022/07/27 22:44:26;;;;;;;6.60;1.80;;;;;;;22.10;51.33;99096.73;238649;1192;138803;-59
2022/07/27 22:49:29;;;;;;;10.00;2.70;;;;;;;22.04;51.26;99099.55;238502;1192;139778;-59
2022/07/27 22:54:35;;;;;;;4.80;1.80;;;;;;;21.98;51.08;99099.55;238551;1192;139863;-56
2022/07/27 22:59:38;;;;;;;7.00;2.10;;;;;;;21.90;51.13;99099.13;238728;1192;139324;-58
2022/07/27 23:04:41;;;;;;;10.40;1.90;;;;;;;21.82;51.06;99111.50;238701;1190;138813;-59
2022/07/27 23:09:44;;;;;;;5.80;1.70;;;;;;;21.77;50.92;99116.84;238792;1190;139030;-60
2022/07/27 23:14:47;;;;;;;6.50;1.80;;;;;;;21.69;50.83;99115.42;238737;1191;140193;-60
2022/07/27 23:19:51;;;;;;;5.30;1.60;;;;;;;21.61;50.75;99121.00;238634;1190;139126;-60
2022/07/27 23:24:53;;;;;;;4.00;1.80;;;;;;;21.58;50.76;99126.02;238725;1190;138541;-58